createdAt,value
2017-10-31T00:00:13.085Z,67.72
2017-10-31T00:01:19.900Z,67.78
2017-10-31T00:02:26.641Z,67.80
2017-10-31T00:03:33.448Z,67.89
2017-10-31T00:04:40.156Z,67.92
2017-10-31T00:05:46.958Z,67.93
2017-10-31T00:06:53.665Z,67.93
2017-10-31T00:08:00.486Z,67.90
2017-10-31T00:09:07.195Z,67.95
2017-10-31T00:10:13.901Z,67.95
2017-10-31T00:11:20.648Z,67.95
2017-10-31T00:12:27.360Z,67.96
2017-10-31T00:13:34.113Z,67.96
2017-10-31T00:14:40.873Z,67.93
2017-10-31T00:15:47.581Z,67.97
2017-10-31T00:16:54.365Z,67.97
2017-10-31T00:18:01.378Z,67.93
2017-10-31T00:19:08.124Z,67.99
2017-10-31T00:20:14.884Z,68.01
2017-10-31T00:21:21.587Z,68.01
2017-10-31T00:22:28.314Z,68.00
2017-10-31T00:23:35.049Z,67.99
2017-10-31T00:24:41.820Z,68.01
2017-10-31T00:25:48.628Z,68.02
2017-10-31T00:26:55.353Z,68.06
2017-10-31T00:28:02.073Z,68.06
2017-10-31T00:29:08.872Z,68.08
2017-10-31T00:30:15.699Z,68.12
2017-10-31T00:31:22.453Z,68.13
2017-10-31T00:32:29.150Z,68.11
2017-10-31T00:33:35.950Z,68.15
2017-10-31T00:34:48.575Z,68.12
2017-10-31T00:35:49.846Z,68.12
2017-10-31T00:36:56.602Z,68.13
2017-10-31T00:38:03.403Z,68.11
2017-10-31T00:39:10.154Z,68.12
2017-10-31T00:40:16.924Z,68.20
2017-10-31T00:41:23.697Z,68.21
2017-10-31T00:42:30.544Z,68.27
2017-10-31T00:43:37.316Z,68.29
2017-10-31T00:44:44.112Z,68.30
2017-10-31T00:45:50.967Z,68.33
2017-10-31T00:46:57.756Z,68.35
2017-10-31T00:48:04.572Z,68.37
2017-10-31T00:49:11.473Z,68.42
2017-10-31T00:50:18.224Z,68.46
2017-10-31T00:51:24.994Z,68.45
2017-10-31T00:52:31.802Z,68.43
2017-10-31T00:53:38.609Z,68.40
2017-10-31T00:54:45.376Z,68.41
2017-10-31T00:55:52.230Z,68.42
2017-10-31T00:56:59.084Z,68.47
2017-10-31T00:58:05.821Z,68.50
2017-10-31T00:58:24.439Z,68.50
2017-10-31T00:59:31.214Z,68.49
2017-10-31T01:00:37.968Z,68.49
2017-10-31T01:01:44.721Z,68.48
2017-10-31T01:02:51.492Z,68.48
2017-10-31T01:03:58.314Z,68.52
2017-10-31T01:05:05.082Z,68.49
2017-10-31T01:06:11.877Z,68.54
2017-10-31T01:07:18.711Z,68.59
2017-10-31T01:08:25.455Z,68.58
2017-10-31T01:09:32.249Z,68.59
2017-10-31T01:10:39.029Z,68.64
2017-10-31T01:11:45.793Z,68.67
2017-10-31T01:12:52.580Z,68.68
2017-10-31T01:13:59.356Z,68.71
2017-10-31T01:15:06.209Z,68.68
2017-10-31T01:16:12.997Z,68.70
2017-10-31T01:17:19.743Z,68.69
2017-10-31T01:18:26.537Z,68.73
2017-10-31T01:19:33.324Z,68.76
2017-10-31T01:20:40.073Z,68.73
2017-10-31T01:21:46.832Z,68.73
2017-10-31T01:22:53.600Z,68.75
2017-10-31T01:24:00.404Z,68.75
2017-10-31T01:25:07.181Z,68.74
2017-10-31T01:26:13.940Z,68.74
2017-10-31T01:27:20.772Z,68.77
2017-10-31T01:28:27.534Z,68.77
2017-10-31T01:29:34.314Z,68.76
2017-10-31T01:30:41.053Z,68.76
2017-10-31T01:31:47.827Z,68.80
2017-10-31T01:32:54.611Z,68.82
2017-10-31T01:34:01.392Z,68.85
2017-10-31T01:35:08.270Z,68.87
2017-10-31T01:36:15.044Z,68.90
2017-10-31T01:37:21.832Z,68.89
2017-10-31T01:38:28.661Z,68.87
2017-10-31T01:39:35.424Z,68.92
2017-10-31T01:40:42.245Z,68.97
2017-10-31T01:41:49.089Z,68.93
2017-10-31T01:42:57.433Z,68.94
2017-10-31T01:44:02.727Z,68.92
2017-10-31T01:45:09.552Z,68.91
2017-10-31T01:46:16.326Z,68.99
2017-10-31T01:47:23.116Z,69.03
2017-10-31T01:48:29.939Z,69.00
2017-10-31T01:49:36.764Z,69.02
2017-10-31T01:50:43.564Z,69.03
2017-10-31T01:51:50.368Z,69.01
2017-10-31T01:52:57.123Z,69.03
2017-10-31T01:54:03.991Z,69.04
2017-10-31T01:55:10.837Z,69.07
2017-10-31T01:56:17.606Z,69.05
2017-10-31T01:57:24.414Z,69.07
2017-10-31T01:58:31.244Z,69.04
2017-10-31T01:59:37.985Z,69.06
2017-10-31T02:00:44.795Z,69.01
2017-10-31T02:01:51.641Z,69.02
2017-10-31T02:02:58.421Z,69.07
2017-10-31T02:04:05.238Z,69.10
2017-10-31T02:05:12.077Z,69.11
2017-10-31T02:06:18.856Z,69.15
2017-10-31T02:07:25.623Z,69.18
2017-10-31T02:08:32.476Z,69.19
2017-10-31T02:09:39.221Z,69.24
2017-10-31T02:10:46.138Z,69.20
2017-10-31T02:11:52.957Z,69.26
2017-10-31T02:12:59.726Z,69.29
2017-10-31T02:14:06.485Z,69.31
2017-10-31T02:15:13.354Z,69.30
2017-10-31T02:16:20.109Z,69.29
2017-10-31T02:17:26.883Z,69.34
2017-10-31T02:18:33.612Z,69.41
2017-10-31T02:19:40.504Z,69.40
2017-10-31T02:20:47.361Z,69.42
2017-10-31T02:21:54.227Z,69.43
2017-10-31T02:23:01.059Z,69.47
2017-10-31T02:24:08.046Z,69.51
2017-10-31T02:25:15.065Z,69.55
2017-10-31T02:26:21.969Z,69.59
2017-10-31T02:27:28.846Z,69.59
2017-10-31T02:28:35.676Z,69.67
2017-10-31T02:29:42.600Z,69.66
2017-10-31T02:30:49.428Z,69.68
2017-10-31T02:31:56.268Z,69.71
2017-10-31T02:33:03.108Z,69.77
2017-10-31T02:34:09.930Z,69.81
2017-10-31T02:35:16.792Z,69.88
2017-10-31T02:36:23.600Z,69.92
2017-10-31T02:37:30.453Z,70.00
2017-10-31T02:38:37.270Z,70.04
2017-10-31T02:39:44.128Z,70.13
2017-10-31T02:40:50.950Z,70.15
2017-10-31T02:41:57.817Z,70.27
2017-10-31T02:43:04.675Z,70.31
2017-10-31T02:44:11.514Z,70.36
2017-10-31T02:45:18.586Z,70.36
2017-10-31T02:46:25.712Z,70.42
2017-10-31T02:47:32.730Z,70.50
2017-10-31T02:48:39.555Z,70.58
2017-10-31T02:49:46.452Z,70.63
2017-10-31T02:50:53.279Z,70.69
2017-10-31T02:52:00.106Z,70.72
2017-10-31T02:53:06.995Z,70.82
2017-10-31T02:54:13.821Z,70.88
2017-10-31T02:55:20.717Z,70.94
2017-10-31T02:56:27.592Z,71.02
2017-10-31T02:57:34.495Z,71.06
2017-10-31T02:58:41.365Z,71.11
2017-10-31T02:59:48.249Z,71.15
2017-10-31T03:00:55.107Z,71.16
2017-10-31T03:02:01.988Z,71.22
2017-10-31T03:03:08.933Z,71.32
2017-10-31T03:04:15.772Z,71.38
2017-10-31T03:05:22.654Z,71.44
2017-10-31T03:06:29.492Z,71.46
2017-10-31T03:07:36.377Z,71.50
2017-10-31T03:08:43.293Z,71.58
2017-10-31T03:09:50.156Z,71.60
2017-10-31T03:10:57.055Z,71.67
2017-10-31T03:12:04.257Z,71.73
2017-10-31T03:13:10.661Z,71.76
2017-10-31T03:14:17.482Z,71.78
2017-10-31T03:15:24.270Z,71.83
2017-10-31T03:16:31.085Z,71.84
2017-10-31T03:17:37.872Z,71.87
2017-10-31T03:18:44.690Z,71.87
2017-10-31T03:19:51.646Z,71.93
2017-10-31T03:20:58.496Z,71.92
2017-10-31T03:22:05.421Z,71.99
2017-10-31T03:23:12.328Z,72.03
2017-10-31T03:24:19.221Z,72.13
2017-10-31T03:25:26.125Z,72.21
2017-10-31T03:26:33.413Z,72.24
2017-10-31T03:27:40.167Z,72.30
2017-10-31T03:28:47.004Z,72.31
2017-10-31T03:29:53.865Z,72.37
2017-10-31T03:31:00.746Z,72.38
2017-10-31T03:32:07.644Z,72.39
2017-10-31T03:33:14.471Z,72.43
2017-10-31T03:34:21.284Z,72.47
2017-10-31T03:35:28.152Z,72.46
2017-10-31T03:36:35.063Z,72.47
2017-10-31T03:37:41.921Z,72.47
2017-10-31T03:38:48.805Z,72.51
2017-10-31T03:39:55.678Z,72.54
2017-10-31T03:41:02.526Z,72.57
2017-10-31T03:42:09.374Z,72.57
2017-10-31T03:43:16.274Z,72.53
2017-10-31T03:44:23.337Z,72.55
2017-10-31T03:45:30.113Z,72.54
2017-10-31T03:46:36.995Z,72.54
2017-10-31T03:47:43.825Z,72.55
2017-10-31T03:48:50.714Z,72.60
2017-10-31T03:49:57.680Z,72.64
2017-10-31T03:51:04.540Z,72.63
2017-10-31T03:52:11.319Z,72.62
2017-10-31T03:53:18.214Z,72.62
2017-10-31T03:54:25.080Z,72.63
2017-10-31T03:55:31.989Z,72.67
2017-10-31T03:56:38.868Z,72.68
2017-10-31T03:57:45.752Z,72.69
2017-10-31T03:58:52.620Z,72.73
2017-10-31T03:59:59.546Z,72.75
2017-10-31T04:01:06.402Z,72.79
2017-10-31T04:02:13.306Z,72.83
2017-10-31T04:03:20.184Z,72.88
2017-10-31T04:04:27.094Z,72.85
2017-10-31T04:05:33.917Z,72.80
2017-10-31T04:06:40.684Z,72.80
2017-10-31T04:07:47.490Z,72.81
2017-10-31T04:08:54.418Z,72.84
2017-10-31T04:10:01.272Z,72.92
2017-10-31T04:11:08.152Z,72.93
2017-10-31T04:12:15.032Z,73.00
2017-10-31T04:13:21.901Z,73.05
2017-10-31T04:14:28.817Z,73.05
2017-10-31T04:15:35.640Z,73.04
2017-10-31T04:16:42.605Z,73.04
2017-10-31T04:17:49.395Z,73.08
2017-10-31T04:18:56.163Z,73.14
2017-10-31T04:20:02.991Z,73.13
2017-10-31T04:21:09.884Z,73.16
2017-10-31T04:22:16.621Z,73.17
2017-10-31T04:23:23.433Z,73.15
2017-10-31T04:24:30.216Z,73.20
2017-10-31T04:25:37.004Z,73.21
2017-10-31T04:26:43.809Z,73.23
2017-10-31T04:27:50.577Z,73.28
2017-10-31T04:28:57.361Z,73.27
2017-10-31T04:30:04.232Z,73.28
2017-10-31T04:31:11.046Z,73.28
2017-10-31T04:32:17.817Z,73.25
2017-10-31T04:33:24.638Z,73.25
2017-10-31T04:34:31.428Z,73.27
2017-10-31T04:35:38.192Z,73.34
2017-10-31T04:36:45.049Z,73.35
2017-10-31T04:37:51.816Z,73.35
2017-10-31T04:38:58.861Z,73.38
2017-10-31T04:40:05.640Z,73.46
2017-10-31T04:41:12.449Z,73.49
2017-10-31T04:42:19.284Z,73.55
2017-10-31T04:43:26.085Z,73.63
2017-10-31T04:44:32.869Z,73.62
2017-10-31T04:45:39.729Z,73.70
2017-10-31T04:46:46.529Z,73.71
2017-10-31T04:47:53.345Z,73.73
2017-10-31T04:49:00.166Z,73.71
2017-10-31T04:50:06.952Z,73.71
2017-10-31T04:51:13.776Z,73.71
2017-10-31T04:52:20.569Z,73.75
2017-10-31T04:53:27.356Z,73.79
2017-10-31T04:54:34.172Z,73.82
2017-10-31T04:55:40.988Z,73.85
2017-10-31T04:56:47.840Z,73.90
2017-10-31T04:57:54.824Z,73.94
2017-10-31T04:59:01.714Z,74.00
2017-10-31T05:00:08.571Z,74.01
2017-10-31T05:01:15.517Z,74.01
2017-10-31T05:02:22.332Z,74.08
2017-10-31T05:03:29.141Z,74.10
2017-10-31T05:04:35.920Z,74.15
2017-10-31T05:05:42.765Z,74.18
2017-10-31T05:06:49.524Z,74.16
2017-10-31T05:07:56.272Z,74.19
2017-10-31T05:09:03.041Z,74.19
2017-10-31T05:10:09.929Z,74.25
2017-10-31T05:11:16.688Z,74.25
2017-10-31T05:12:23.451Z,74.27
2017-10-31T05:13:30.267Z,74.32
2017-10-31T05:14:37.002Z,74.33
2017-10-31T05:15:44.041Z,74.33
2017-10-31T05:16:50.817Z,74.32
2017-10-31T05:17:57.640Z,74.30
2017-10-31T05:19:04.481Z,74.35
2017-10-31T05:20:11.332Z,74.38
2017-10-31T05:21:18.100Z,74.44
2017-10-31T05:22:24.918Z,74.54
2017-10-31T05:23:31.700Z,74.62
2017-10-31T05:24:38.461Z,74.65
2017-10-31T05:25:45.353Z,74.68
2017-10-31T05:26:52.173Z,74.77
2017-10-31T05:27:58.981Z,74.82
2017-10-31T05:29:05.796Z,74.84
2017-10-31T05:30:12.612Z,74.87
2017-10-31T05:31:19.464Z,74.92
2017-10-31T05:32:26.211Z,74.94
2017-10-31T05:33:32.990Z,74.93
2017-10-31T05:34:39.863Z,74.89
2017-10-31T05:35:46.613Z,74.87
2017-10-31T05:36:53.436Z,74.94
2017-10-31T05:38:00.244Z,74.98
2017-10-31T05:39:07.249Z,75.00
2017-10-31T05:40:14.174Z,74.97
2017-10-31T05:41:20.948Z,74.98
2017-10-31T05:42:27.813Z,75.04
2017-10-31T05:43:34.596Z,75.06
2017-10-31T05:44:41.446Z,75.04
2017-10-31T05:45:48.242Z,75.08
2017-10-31T05:46:55.018Z,75.13
2017-10-31T05:48:01.805Z,75.18
2017-10-31T05:49:08.656Z,75.18
2017-10-31T05:50:15.421Z,75.22
2017-10-31T05:51:22.197Z,75.22
2017-10-31T05:52:28.954Z,75.26
2017-10-31T05:53:35.719Z,75.29
2017-10-31T05:54:42.514Z,75.29
2017-10-31T05:55:49.318Z,75.35
2017-10-31T05:56:56.117Z,75.38
2017-10-31T05:58:02.901Z,75.40
2017-10-31T05:59:09.680Z,75.46
2017-10-31T06:00:16.584Z,75.50
2017-10-31T06:01:23.373Z,75.55
2017-10-31T06:02:30.148Z,75.54
2017-10-31T06:03:36.969Z,75.55
2017-10-31T06:04:43.760Z,75.60
2017-10-31T06:05:50.554Z,75.64
2017-10-31T06:06:57.473Z,75.68
2017-10-31T06:08:04.305Z,75.72
2017-10-31T06:09:11.169Z,75.73
2017-10-31T06:10:17.941Z,75.79
2017-10-31T06:11:24.741Z,75.82
2017-10-31T06:12:31.564Z,75.83
2017-10-31T06:13:38.409Z,75.81
2017-10-31T06:14:45.153Z,75.83
2017-10-31T06:15:51.989Z,75.85
2017-10-31T06:16:58.783Z,75.92
2017-10-31T06:18:05.566Z,75.92
2017-10-31T06:19:12.508Z,75.92
2017-10-31T06:20:19.281Z,75.93
2017-10-31T06:21:26.198Z,75.95
2017-10-31T06:22:33.040Z,75.96
2017-10-31T06:23:39.964Z,75.99
2017-10-31T06:24:47.267Z,76.05
2017-10-31T06:25:55.136Z,76.10
2017-10-31T06:27:02.821Z,76.15
2017-10-31T06:28:09.866Z,76.17
2017-10-31T06:29:16.717Z,76.17
2017-10-31T06:30:23.646Z,76.20
2017-10-31T06:31:32.847Z,76.21
2017-10-31T06:32:39.657Z,76.21
2017-10-31T06:33:46.457Z,76.22
2017-10-31T06:34:53.273Z,76.21
2017-10-31T06:36:00.181Z,76.20
2017-10-31T06:37:06.969Z,76.22
2017-10-31T06:38:13.818Z,76.26
2017-10-31T06:39:20.601Z,76.26
2017-10-31T06:40:27.402Z,76.22
2017-10-31T06:41:34.234Z,76.25
2017-10-31T06:42:41.040Z,76.23
2017-10-31T06:43:47.881Z,76.24
2017-10-31T06:44:54.670Z,76.25
2017-10-31T06:46:01.435Z,76.20
2017-10-31T06:47:09.056Z,76.24
2017-10-31T06:48:18.113Z,76.20
2017-10-31T06:49:22.397Z,76.25
2017-10-31T06:50:29.157Z,76.24
2017-10-31T06:51:35.965Z,76.28
2017-10-31T06:52:42.753Z,76.32
2017-10-31T06:53:49.561Z,76.30
2017-10-31T06:54:56.380Z,76.35
2017-10-31T06:56:03.159Z,76.35
2017-10-31T06:57:09.924Z,76.33
2017-10-31T06:58:16.791Z,76.38
2017-10-31T06:59:23.504Z,76.40
2017-10-31T07:00:30.296Z,76.45
2017-10-31T07:01:37.069Z,76.41
2017-10-31T07:02:43.869Z,76.40
2017-10-31T07:03:50.657Z,76.42
2017-10-31T07:04:57.498Z,76.46
2017-10-31T07:06:04.273Z,76.46
2017-10-31T07:07:11.089Z,76.49
2017-10-31T07:08:17.881Z,76.55
2017-10-31T07:09:24.825Z,76.57
2017-10-31T07:10:31.610Z,76.62
2017-10-31T07:11:38.506Z,76.68
2017-10-31T07:12:45.300Z,76.68
2017-10-31T07:13:52.101Z,76.72
2017-10-31T07:14:58.933Z,76.72
2017-10-31T07:16:05.747Z,76.74
2017-10-31T07:17:12.558Z,76.75
2017-10-31T07:18:19.387Z,76.75
2017-10-31T07:19:26.297Z,76.72
2017-10-31T07:20:33.120Z,76.75
2017-10-31T07:21:39.903Z,76.75
2017-10-31T07:22:46.805Z,76.75
2017-10-31T07:23:53.581Z,76.76
2017-10-31T07:25:00.373Z,76.77
2017-10-31T07:26:07.273Z,76.79
2017-10-31T07:27:14.088Z,76.80
2017-10-31T07:28:21.100Z,76.84
2017-10-31T07:29:27.899Z,76.88
2017-10-31T07:30:34.697Z,76.90
2017-10-31T07:31:41.484Z,76.95
2017-10-31T07:32:48.294Z,76.93
2017-10-31T07:33:55.077Z,76.96
2017-10-31T07:35:01.993Z,76.99
2017-10-31T07:36:08.899Z,76.98
2017-10-31T07:37:15.724Z,76.97
2017-10-31T07:38:22.505Z,76.99
2017-10-31T07:39:29.449Z,76.96
2017-10-31T07:40:36.282Z,77.01
2017-10-31T07:41:43.061Z,77.00
2017-10-31T07:42:49.888Z,77.00
2017-10-31T07:43:56.778Z,77.01
2017-10-31T07:45:03.650Z,77.08
2017-10-31T07:46:10.480Z,77.17
2017-10-31T07:47:17.324Z,77.25
2017-10-31T07:48:24.089Z,77.33
2017-10-31T07:49:30.927Z,77.33
2017-10-31T07:50:37.705Z,77.30
2017-10-31T07:51:44.522Z,77.36
2017-10-31T07:52:51.460Z,77.44
2017-10-31T07:53:58.296Z,77.55
2017-10-31T07:55:05.458Z,77.65
2017-10-31T07:56:12.561Z,77.72
2017-10-31T07:57:19.337Z,77.81
2017-10-31T07:58:26.148Z,77.80
2017-10-31T07:59:32.950Z,77.84
2017-10-31T08:00:39.740Z,77.87
2017-10-31T08:01:46.612Z,77.87
2017-10-31T08:02:53.399Z,77.90
2017-10-31T08:04:00.209Z,77.91
2017-10-31T08:05:07.278Z,77.94
2017-10-31T08:06:14.374Z,77.91
2017-10-31T08:07:21.193Z,77.92
2017-10-31T08:08:27.960Z,77.95
2017-10-31T08:09:35.118Z,77.94
2017-10-31T08:10:41.605Z,77.95
2017-10-31T08:11:48.532Z,77.99
2017-10-31T08:12:55.322Z,78.02
2017-10-31T08:14:02.277Z,78.03
2017-10-31T08:15:09.184Z,78.08
2017-10-31T08:16:16.037Z,78.13
2017-10-31T08:17:22.930Z,78.17
2017-10-31T08:18:29.810Z,78.19
2017-10-31T08:19:36.625Z,78.25
2017-10-31T08:20:43.480Z,78.35
2017-10-31T08:21:50.264Z,78.42
2017-10-31T08:22:57.298Z,78.50
2017-10-31T08:24:04.172Z,78.60
2017-10-31T08:25:10.969Z,78.70
2017-10-31T08:26:17.773Z,78.75
2017-10-31T08:27:24.688Z,78.75
2017-10-31T08:28:31.588Z,78.72
2017-10-31T08:29:38.361Z,78.76
2017-10-31T08:30:45.217Z,78.82
2017-10-31T08:31:51.984Z,78.83
2017-10-31T08:32:59.109Z,78.90
2017-10-31T08:34:05.890Z,78.92
2017-10-31T08:35:12.704Z,78.95
2017-10-31T08:36:19.508Z,78.94
2017-10-31T08:37:26.312Z,78.97
2017-10-31T08:38:33.220Z,79.05
2017-10-31T08:39:40.006Z,79.15
2017-10-31T08:40:46.789Z,79.19
2017-10-31T08:41:53.713Z,79.17
2017-10-31T08:43:00.565Z,79.18
2017-10-31T08:44:07.476Z,79.23
2017-10-31T08:45:14.293Z,79.27
2017-10-31T08:46:21.069Z,79.39
2017-10-31T08:47:27.905Z,79.41
2017-10-31T08:48:34.736Z,79.47
2017-10-31T08:49:41.523Z,79.52
2017-10-31T08:50:48.309Z,79.56
2017-10-31T08:51:55.082Z,79.58
2017-10-31T08:53:01.857Z,79.63
2017-10-31T08:54:08.718Z,79.70
2017-10-31T08:55:15.464Z,79.75
2017-10-31T08:56:22.284Z,79.77
2017-10-31T08:57:29.286Z,79.79
2017-10-31T08:58:36.143Z,79.80
2017-10-31T08:59:42.910Z,79.88
2017-10-31T09:00:49.673Z,79.96
2017-10-31T09:01:56.453Z,80.07
2017-10-31T09:03:03.354Z,80.10
2017-10-31T09:04:10.219Z,80.11
2017-10-31T09:05:17.125Z,80.15
2017-10-31T09:06:23.878Z,80.25
2017-10-31T09:07:30.697Z,80.29
2017-10-31T09:08:37.529Z,80.36
2017-10-31T09:09:44.329Z,80.39
2017-10-31T09:10:51.430Z,80.46
2017-10-31T09:11:58.209Z,80.54
2017-10-31T09:13:05.109Z,80.63
2017-10-31T09:14:11.860Z,80.73
2017-10-31T09:15:18.733Z,80.79
2017-10-31T09:16:25.885Z,80.90
2017-10-31T09:17:32.685Z,81.01
2017-10-31T09:18:39.467Z,81.16
2017-10-31T09:19:46.316Z,81.24
2017-10-31T09:20:53.128Z,81.37
2017-10-31T09:21:59.864Z,81.47
2017-10-31T09:23:06.649Z,81.58
2017-10-31T09:24:13.385Z,81.66
2017-10-31T09:25:20.257Z,81.75
2017-10-31T09:26:27.044Z,81.86
2017-10-31T09:27:33.816Z,81.95
2017-10-31T09:28:40.657Z,82.05
2017-10-31T09:29:47.440Z,82.18
2017-10-31T09:30:54.243Z,82.28
2017-10-31T09:32:01.066Z,82.38
2017-10-31T09:33:07.857Z,82.44
2017-10-31T09:34:14.624Z,82.49
2017-10-31T09:35:21.465Z,82.63
2017-10-31T09:36:28.284Z,82.71
2017-10-31T09:37:35.135Z,82.79
2017-10-31T09:38:42.100Z,82.86
2017-10-31T09:39:48.989Z,82.93
2017-10-31T09:40:55.837Z,83.01
2017-10-31T09:42:02.626Z,83.07
2017-10-31T09:43:09.418Z,83.10
2017-10-31T09:44:16.229Z,83.15
2017-10-31T09:45:23.024Z,83.21
2017-10-31T09:46:29.862Z,83.21
2017-10-31T09:47:36.764Z,83.32
2017-10-31T09:48:43.645Z,83.39
2017-10-31T09:49:50.412Z,83.48
2017-10-31T09:50:57.213Z,83.52
2017-10-31T09:52:04.065Z,83.61
2017-10-31T09:53:10.888Z,83.65
2017-10-31T09:54:17.642Z,83.72
2017-10-31T09:55:24.448Z,83.81
2017-10-31T09:56:31.272Z,83.94
2017-10-31T09:57:38.059Z,84.03
2017-10-31T09:58:44.888Z,84.13
2017-10-31T09:59:51.669Z,84.28
2017-10-31T10:00:58.450Z,84.38
2017-10-31T10:02:05.349Z,84.50
2017-10-31T10:03:12.129Z,84.61
2017-10-31T10:04:18.928Z,84.67
2017-10-31T10:05:25.771Z,84.86
2017-10-31T10:06:32.549Z,84.97
2017-10-31T10:07:39.350Z,85.08
2017-10-31T10:08:46.193Z,85.19
2017-10-31T10:09:52.990Z,85.29
2017-10-31T10:10:59.791Z,85.37
2017-10-31T10:12:06.581Z,85.45
2017-10-31T10:13:13.388Z,85.56
2017-10-31T10:14:20.219Z,85.65
2017-10-31T10:15:27.020Z,85.77
2017-10-31T10:16:33.803Z,85.82
2017-10-31T10:17:40.637Z,85.92
2017-10-31T10:18:47.458Z,86.02
2017-10-31T10:19:54.237Z,86.10
2017-10-31T10:21:01.020Z,86.18
2017-10-31T10:22:07.864Z,86.24
2017-10-31T10:23:14.756Z,86.39
2017-10-31T10:24:21.656Z,86.49
2017-10-31T10:25:28.417Z,86.57
2017-10-31T10:26:35.177Z,86.63
2017-10-31T10:27:41.925Z,86.74
2017-10-31T10:28:48.747Z,86.83
2017-10-31T10:29:55.526Z,86.87
2017-10-31T10:31:02.338Z,86.98
2017-10-31T10:32:09.140Z,87.03
2017-10-31T10:33:15.921Z,87.06
2017-10-31T10:34:22.733Z,87.15
2017-10-31T10:35:29.588Z,87.25
2017-10-31T10:36:36.367Z,87.30
2017-10-31T10:37:43.157Z,87.34
2017-10-31T10:38:49.988Z,87.41
2017-10-31T10:39:56.896Z,87.52
2017-10-31T10:41:03.737Z,87.58
2017-10-31T10:42:10.540Z,87.60
2017-10-31T10:43:17.325Z,87.62
2017-10-31T10:44:24.301Z,87.66
2017-10-31T10:45:31.102Z,87.72
2017-10-31T10:46:37.937Z,87.81
2017-10-31T10:47:44.681Z,87.87
2017-10-31T10:48:51.512Z,87.95
2017-10-31T10:49:58.354Z,88.01
2017-10-31T10:51:05.124Z,88.02
2017-10-31T10:52:11.924Z,88.09
2017-10-31T10:53:18.796Z,88.14
2017-10-31T10:54:25.656Z,88.19
2017-10-31T10:55:32.414Z,88.22
2017-10-31T10:56:39.225Z,88.25
2017-10-31T10:57:46.085Z,88.29
2017-10-31T10:58:52.988Z,88.35
2017-10-31T10:59:59.774Z,88.38
2017-10-31T11:01:06.636Z,88.41
2017-10-31T11:02:13.523Z,88.46
2017-10-31T11:03:20.312Z,88.47
2017-10-31T11:04:27.057Z,88.51
2017-10-31T11:05:34.609Z,88.60
2017-10-31T11:06:40.948Z,88.67
2017-10-31T11:07:47.726Z,88.68
2017-10-31T11:08:54.500Z,88.69
2017-10-31T11:10:01.377Z,88.68
2017-10-31T11:11:08.190Z,88.77
2017-10-31T11:12:14.952Z,88.84
2017-10-31T11:13:21.777Z,88.89
2017-10-31T11:14:28.557Z,88.90
2017-10-31T11:15:35.340Z,88.90
2017-10-31T11:16:42.270Z,88.86
2017-10-31T11:17:49.051Z,88.86
2017-10-31T11:18:55.886Z,88.75
2017-10-31T11:20:02.649Z,88.61
2017-10-31T11:21:09.513Z,88.69
2017-10-31T11:22:16.345Z,88.72
2017-10-31T11:23:23.120Z,88.70
2017-10-31T11:24:30.144Z,88.72
2017-10-31T11:25:36.946Z,88.64
2017-10-31T11:26:43.707Z,88.46
2017-10-31T11:27:50.541Z,88.47
2017-10-31T11:29:02.462Z,88.54
2017-10-31T11:30:04.233Z,88.48
2017-10-31T11:31:11.069Z,88.51
2017-10-31T11:32:17.888Z,88.49
2017-10-31T11:33:24.630Z,88.37
2017-10-31T11:34:31.470Z,88.25
2017-10-31T11:35:38.268Z,88.13
2017-10-31T11:36:45.163Z,87.97
2017-10-31T11:37:52.265Z,87.98
2017-10-31T11:38:59.060Z,87.90
2017-10-31T11:40:05.857Z,87.97
2017-10-31T11:41:12.608Z,87.86
2017-10-31T11:42:19.501Z,87.71
2017-10-31T11:43:26.333Z,87.68
2017-10-31T11:44:33.140Z,87.51
2017-10-31T11:45:39.981Z,87.11
2017-10-31T11:46:46.782Z,86.99
2017-10-31T11:47:53.533Z,86.95
2017-10-31T11:49:00.381Z,86.85
2017-10-31T11:50:07.169Z,86.50
2017-10-31T11:51:13.920Z,86.23
2017-10-31T11:52:20.741Z,86.02
2017-10-31T11:53:27.580Z,85.93
2017-10-31T11:54:34.372Z,85.73
2017-10-31T11:55:41.151Z,85.49
2017-10-31T11:56:47.953Z,85.31
2017-10-31T11:57:54.712Z,84.99
2017-10-31T11:59:01.972Z,84.67
2017-10-31T12:00:08.284Z,84.46
2017-10-31T12:01:15.078Z,84.29
2017-10-31T12:02:21.950Z,84.11
2017-10-31T12:03:28.717Z,83.89
2017-10-31T12:04:35.511Z,83.67
2017-10-31T12:05:42.340Z,83.62
2017-10-31T12:06:49.139Z,83.36
2017-10-31T12:07:55.930Z,82.91
2017-10-31T12:09:02.745Z,82.48
2017-10-31T12:10:09.604Z,82.36
2017-10-31T12:11:16.408Z,81.93
2017-10-31T12:12:23.305Z,81.72
2017-10-31T12:13:30.183Z,81.27
2017-10-31T12:14:37.072Z,80.84
2017-10-31T12:15:43.896Z,80.73
2017-10-31T12:16:50.717Z,80.73
2017-10-31T12:17:57.510Z,80.75
2017-10-31T12:19:04.305Z,80.58
2017-10-31T12:20:11.206Z,80.19
2017-10-31T12:21:18.075Z,79.79
2017-10-31T12:22:24.944Z,79.46
2017-10-31T12:23:31.875Z,79.33
2017-10-31T12:24:38.752Z,79.17
2017-10-31T12:25:45.649Z,78.88
2017-10-31T12:26:52.541Z,78.46
2017-10-31T12:27:59.389Z,78.36
2017-10-31T12:29:06.281Z,78.07
2017-10-31T12:30:14.067Z,77.99
2017-10-31T12:31:20.053Z,77.71
2017-10-31T12:32:26.982Z,77.63
2017-10-31T12:33:33.813Z,77.54
2017-10-31T12:34:40.680Z,77.15
2017-10-31T12:35:47.642Z,77.02
2017-10-31T12:36:54.495Z,76.95
2017-10-31T12:38:01.326Z,76.63
2017-10-31T12:39:08.117Z,76.44
2017-10-31T12:40:14.900Z,76.15
2017-10-31T12:41:21.740Z,75.96
2017-10-31T12:42:28.533Z,75.65
2017-10-31T12:43:35.414Z,75.26
2017-10-31T12:44:42.200Z,74.89
2017-10-31T12:45:49.020Z,74.73
2017-10-31T12:46:55.793Z,74.80
2017-10-31T12:48:02.565Z,74.53
2017-10-31T12:49:09.373Z,74.33
2017-10-31T12:50:16.177Z,74.18
2017-10-31T12:51:22.973Z,74.07
2017-10-31T12:52:29.780Z,73.99
2017-10-31T12:53:36.738Z,74.16
2017-10-31T12:54:43.720Z,73.86
2017-10-31T12:55:50.529Z,73.48
2017-10-31T12:56:57.510Z,73.43
2017-10-31T12:58:04.238Z,73.15
2017-10-31T12:59:11.021Z,72.83
2017-10-31T13:00:17.892Z,72.87
2017-10-31T13:01:24.776Z,72.82
2017-10-31T13:02:31.688Z,72.58
2017-10-31T13:03:38.477Z,72.21
2017-10-31T13:04:45.272Z,72.01
2017-10-31T13:05:52.101Z,72.01
2017-10-31T13:06:59.006Z,71.89
2017-10-31T13:08:05.876Z,71.51
2017-10-31T13:09:12.687Z,71.20
2017-10-31T13:10:19.489Z,70.94
2017-10-31T13:11:26.277Z,70.97
2017-10-31T13:12:33.108Z,71.01
2017-10-31T13:13:39.851Z,70.92
2017-10-31T13:14:46.661Z,70.66
2017-10-31T13:15:53.436Z,70.63
2017-10-31T13:17:00.234Z,70.43
2017-10-31T13:18:07.117Z,70.07
2017-10-31T13:19:13.888Z,69.77
2017-10-31T13:20:20.657Z,69.74
2017-10-31T13:21:27.480Z,69.80
2017-10-31T13:22:34.233Z,69.78
2017-10-31T13:23:41.045Z,69.88
2017-10-31T13:24:47.873Z,69.46
2017-10-31T13:25:54.671Z,69.50
2017-10-31T13:27:01.469Z,69.16
2017-10-31T13:28:08.522Z,68.87
2017-10-31T13:29:15.650Z,68.81
2017-10-31T13:30:22.716Z,68.93
2017-10-31T13:31:29.780Z,68.68
2017-10-31T13:32:36.889Z,68.51
2017-10-31T13:33:44.267Z,68.41
2017-10-31T13:34:50.824Z,68.19
2017-10-31T13:35:57.974Z,67.99
2017-10-31T13:37:04.716Z,68.04
2017-10-31T13:38:11.768Z,67.95
2017-10-31T13:39:18.484Z,67.79
2017-10-31T13:40:25.577Z,67.83
2017-10-31T13:41:32.253Z,67.83
2017-10-31T13:42:39.372Z,67.80
2017-10-31T13:43:46.450Z,67.72
2017-10-31T13:44:53.324Z,67.60
2017-10-31T13:46:00.117Z,67.57
2017-10-31T13:47:06.945Z,67.30
2017-10-31T13:48:13.922Z,67.08
2017-10-31T13:49:20.659Z,67.13
2017-10-31T13:50:27.791Z,66.99
2017-10-31T13:51:34.420Z,66.81
2017-10-31T13:52:41.413Z,66.85
2017-10-31T13:53:48.189Z,66.71
2017-10-31T13:54:55.371Z,66.53
2017-10-31T13:56:02.298Z,66.18
2017-10-31T13:57:09.061Z,66.29
2017-10-31T13:58:15.840Z,66.23
2017-10-31T13:59:22.620Z,66.00
2017-10-31T14:00:29.406Z,65.95
2017-10-31T14:01:36.384Z,65.81
2017-10-31T14:02:43.249Z,65.76
2017-10-31T14:03:50.236Z,65.61
2017-10-31T14:04:57.334Z,65.39
2017-10-31T14:06:04.424Z,65.29
2017-10-31T14:07:11.457Z,65.17
2017-10-31T14:08:18.389Z,65.11
2017-10-31T14:09:25.375Z,65.17
2017-10-31T14:10:32.537Z,64.98
2017-10-31T14:11:39.649Z,65.03
2017-10-31T14:12:46.869Z,64.85
2017-10-31T14:13:53.917Z,64.86
2017-10-31T14:15:00.708Z,64.89
2017-10-31T14:16:07.545Z,64.58
2017-10-31T14:17:14.334Z,64.49
2017-10-31T14:18:21.137Z,64.31
2017-10-31T14:19:27.944Z,64.25